sensor_id;sensor_type;location;lat;lon;timestamp;P1;durP1;ratioP1;P2;durP2;ratioP2
11328;SDS011;5719;42.714;23.732;2023-12-29T00:00:41;72.57;;;29.02;;
11328;SDS011;5719;42.714;23.732;2023-12-29T00:03:08;80.45;;;28.17;;
11328;SDS011;5719;42.714;23.732;2023-12-29T00:05:38;76.03;;;28.20;;
11328;SDS011;5719;42.714;23.732;2023-12-29T00:08:05;80.15;;;26.55;;
11328;SDS011;5719;42.714;23.732;2023-12-29T00:10:32;69.65;;;26.55;;
11328;SDS011;5719;42.714;23.732;2023-12-29T00:12:59;69.95;;;26.45;;
11328;SDS011;5719;42.714;23.732;2023-12-29T00:15:26;62.58;;;25.13;;
11328;SDS011;5719;42.714;23.732;2023-12-29T00:17:55;63.55;;;23.85;;
11328;SDS011;5719;42.714;23.732;2023-12-29T00:20:22;60.25;;;22.90;;
11328;SDS011;5719;42.714;23.732;2023-12-29T00:22:49;63.42;;;24.00;;
11328;SDS011;5719;42.714;23.732;2023-12-29T00:25:15;65.82;;;23.40;;
11328;SDS011;5719;42.714;23.732;2023-12-29T00:27:42;56.40;;;23.27;;
11328;SDS011;5719;42.714;23.732;2023-12-29T00:30:10;57.22;;;23.23;;
11328;SDS011;5719;42.714;23.732;2023-12-29T00:32:37;65.15;;;23.23;;
11328;SDS011;5719;42.714;23.732;2023-12-29T00:35:05;58.10;;;23.15;;
11328;SDS011;5719;42.714;23.732;2023-12-29T00:37:32;60.75;;;23.48;;
11328;SDS011;5719;42.714;23.732;2023-12-29T00:39:59;57.10;;;23.55;;
11328;SDS011;5719;42.714;23.732;2023-12-29T00:42:26;65.60;;;24.73;;
11328;SDS011;5719;42.714;23.732;2023-12-29T00:44:53;64.43;;;25.05;;
11328;SDS011;5719;42.714;23.732;2023-12-29T00:47:19;55.53;;;21.80;;
11328;SDS011;5719;42.714;23.732;2023-12-29T00:49:48;62.53;;;23.63;;
11328;SDS011;5719;42.714;23.732;2023-12-29T00:52:17;57.92;;;22.92;;
11328;SDS011;5719;42.714;23.732;2023-12-29T00:54:44;65.10;;;22.45;;
11328;SDS011;5719;42.714;23.732;2023-12-29T00:57:11;61.88;;;22.77;;
11328;SDS011;5719;42.714;23.732;2023-12-29T00:59:38;65.55;;;23.10;;
11328;SDS011;5719;42.714;23.732;2023-12-29T01:02:05;58.70;;;22.27;;
11328;SDS011;5719;42.714;23.732;2023-12-29T01:04:32;66.38;;;23.38;;
11328;SDS011;5719;42.714;23.732;2023-12-29T01:06:59;60.45;;;21.92;;
11328;SDS011;5719;42.714;23.732;2023-12-29T01:09:27;58.90;;;21.35;;
11328;SDS011;5719;42.714;23.732;2023-12-29T01:11:54;53.67;;;19.48;;
11328;SDS011;5719;42.714;23.732;2023-12-29T01:14:20;51.40;;;20.25;;
11328;SDS011;5719;42.714;23.732;2023-12-29T01:16:46;56.63;;;21.90;;
11328;SDS011;5719;42.714;23.732;2023-12-29T01:19:13;56.67;;;20.20;;
11328;SDS011;5719;42.714;23.732;2023-12-29T01:21:40;61.35;;;20.55;;
11328;SDS011;5719;42.714;23.732;2023-12-29T01:24:07;60.95;;;20.48;;
11328;SDS011;5719;42.714;23.732;2023-12-29T01:26:38;57.38;;;19.63;;
11328;SDS011;5719;42.714;23.732;2023-12-29T01:29:05;55.53;;;18.63;;
11328;SDS011;5719;42.714;23.732;2023-12-29T01:31:32;43.25;;;18.42;;
11328;SDS011;5719;42.714;23.732;2023-12-29T01:33:59;49.63;;;18.75;;
11328;SDS011;5719;42.714;23.732;2023-12-29T01:36:26;49.92;;;19.70;;
11328;SDS011;5719;42.714;23.732;2023-12-29T01:38:52;53.60;;;18.98;;
11328;SDS011;5719;42.714;23.732;2023-12-29T01:41:19;45.10;;;17.80;;
11328;SDS011;5719;42.714;23.732;2023-12-29T01:44:12;44.00;;;17.10;;
11328;SDS011;5719;42.714;23.732;2023-12-29T01:46:45;31.00;;;13.73;;
11328;SDS011;5719;42.714;23.732;2023-12-29T01:49:13;31.13;;;14.00;;
11328;SDS011;5719;42.714;23.732;2023-12-29T01:51:42;27.27;;;12.98;;
11328;SDS011;5719;42.714;23.732;2023-12-29T01:54:09;35.00;;;13.10;;
11328;SDS011;5719;42.714;23.732;2023-12-29T01:56:38;33.35;;;12.13;;
11328;SDS011;5719;42.714;23.732;2023-12-29T01:59:07;25.25;;;11.32;;
11328;SDS011;5719;42.714;23.732;2023-12-29T02:01:34;25.17;;;11.27;;
11328;SDS011;5719;42.714;23.732;2023-12-29T02:04:02;28.52;;;11.82;;
11328;SDS011;5719;42.714;23.732;2023-12-29T02:06:32;36.08;;;13.27;;
11328;SDS011;5719;42.714;23.732;2023-12-29T02:09:01;34.97;;;13.75;;
11328;SDS011;5719;42.714;23.732;2023-12-29T02:11:28;44.45;;;15.35;;
11328;SDS011;5719;42.714;23.732;2023-12-29T02:13:56;34.50;;;15.40;;
11328;SDS011;5719;42.714;23.732;2023-12-29T02:16:34;32.50;;;14.07;;
11328;SDS011;5719;42.714;23.732;2023-12-29T02:19:06;39.13;;;17.38;;
11328;SDS011;5719;42.714;23.732;2023-12-29T02:21:45;38.72;;;14.45;;
11328;SDS011;5719;42.714;23.732;2023-12-29T02:24:11;38.85;;;15.05;;
11328;SDS011;5719;42.714;23.732;2023-12-29T02:26:40;39.70;;;15.02;;
11328;SDS011;5719;42.714;23.732;2023-12-29T02:29:12;36.03;;;14.82;;
11328;SDS011;5719;42.714;23.732;2023-12-29T02:31:43;36.30;;;14.25;;
11328;SDS011;5719;42.714;23.732;2023-12-29T02:34:14;35.53;;;14.50;;
11328;SDS011;5719;42.714;23.732;2023-12-29T02:36:43;33.50;;;14.13;;
11328;SDS011;5719;42.714;23.732;2023-12-29T02:39:11;44.33;;;13.82;;
11328;SDS011;5719;42.714;23.732;2023-12-29T02:41:38;35.22;;;13.35;;
11328;SDS011;5719;42.714;23.732;2023-12-29T02:44:06;36.55;;;13.20;;
11328;SDS011;5719;42.714;23.732;2023-12-29T02:46:33;37.25;;;13.63;;
11328;SDS011;5719;42.714;23.732;2023-12-29T02:49:00;28.48;;;11.95;;
11328;SDS011;5719;42.714;23.732;2023-12-29T02:51:38;30.92;;;12.20;;
11328;SDS011;5719;42.714;23.732;2023-12-29T02:54:05;36.30;;;14.15;;
11328;SDS011;5719;42.714;23.732;2023-12-29T02:56:32;38.17;;;14.52;;
11328;SDS011;5719;42.714;23.732;2023-12-29T02:59:00;32.53;;;14.57;;
11328;SDS011;5719;42.714;23.732;2023-12-29T03:01:28;35.83;;;14.27;;
11328;SDS011;5719;42.714;23.732;2023-12-29T03:03:54;48.25;;;17.23;;
11328;SDS011;5719;42.714;23.732;2023-12-29T03:06:21;42.55;;;17.30;;
11328;SDS011;5719;42.714;23.732;2023-12-29T03:08:48;34.40;;;15.38;;
11328;SDS011;5719;42.714;23.732;2023-12-29T03:11:15;36.65;;;16.65;;
11328;SDS011;5719;42.714;23.732;2023-12-29T03:13:42;38.50;;;16.92;;
11328;SDS011;5719;42.714;23.732;2023-12-29T03:16:08;35.45;;;16.00;;
11328;SDS011;5719;42.714;23.732;2023-12-29T03:18:37;39.08;;;16.20;;
11328;SDS011;5719;42.714;23.732;2023-12-29T03:21:05;35.67;;;15.20;;
11328;SDS011;5719;42.714;23.732;2023-12-29T03:23:32;31.13;;;13.52;;
11328;SDS011;5719;42.714;23.732;2023-12-29T03:25:59;30.40;;;14.10;;
11328;SDS011;5719;42.714;23.732;2023-12-29T03:28:26;31.88;;;13.85;;
11328;SDS011;5719;42.714;23.732;2023-12-29T03:30:52;35.20;;;14.55;;
11328;SDS011;5719;42.714;23.732;2023-12-29T03:33:20;33.65;;;13.57;;
11328;SDS011;5719;42.714;23.732;2023-12-29T03:35:48;31.02;;;13.88;;
11328;SDS011;5719;42.714;23.732;2023-12-29T03:38:15;36.50;;;13.52;;
11328;SDS011;5719;42.714;23.732;2023-12-29T03:40:41;25.88;;;12.85;;
11328;SDS011;5719;42.714;23.732;2023-12-29T03:43:08;28.60;;;14.10;;
11328;SDS011;5719;42.714;23.732;2023-12-29T03:45:35;42.05;;;14.15;;
11328;SDS011;5719;42.714;23.732;2023-12-29T03:48:02;40.17;;;13.93;;
11328;SDS011;5719;42.714;23.732;2023-12-29T03:50:29;42.90;;;14.38;;
11328;SDS011;5719;42.714;23.732;2023-12-29T03:52:57;61.40;;;18.80;;
11328;SDS011;5719;42.714;23.732;2023-12-29T03:55:24;52.47;;;16.75;;
11328;SDS011;5719;42.714;23.732;2023-12-29T03:57:51;46.88;;;16.60;;
11328;SDS011;5719;42.714;23.732;2023-12-29T04:00:17;49.53;;;17.80;;
11328;SDS011;5719;42.714;23.732;2023-12-29T04:02:44;34.72;;;14.65;;
11328;SDS011;5719;42.714;23.732;2023-12-29T04:05:11;31.95;;;13.55;;
11328;SDS011;5719;42.714;23.732;2023-12-29T04:07:38;33.25;;;13.82;;
11328;SDS011;5719;42.714;23.732;2023-12-29T04:10:07;24.33;;;11.15;;
11328;SDS011;5719;42.714;23.732;2023-12-29T04:12:34;21.75;;;10.13;;
11328;SDS011;5719;42.714;23.732;2023-12-29T04:15:01;25.35;;;11.25;;
11328;SDS011;5719;42.714;23.732;2023-12-29T04:17:28;24.25;;;10.05;;
11328;SDS011;5719;42.714;23.732;2023-12-29T04:19:55;25.20;;;9.88;;
11328;SDS011;5719;42.714;23.732;2023-12-29T04:22:22;21.80;;;9.27;;
11328;SDS011;5719;42.714;23.732;2023-12-29T04:24:49;21.95;;;9.30;;
11328;SDS011;5719;42.714;23.732;2023-12-29T04:27:17;22.05;;;9.55;;
11328;SDS011;5719;42.714;23.732;2023-12-29T04:29:44;26.65;;;9.73;;
11328;SDS011;5719;42.714;23.732;2023-12-29T04:32:11;21.45;;;9.35;;
11328;SDS011;5719;42.714;23.732;2023-12-29T04:34:39;17.73;;;9.00;;
11328;SDS011;5719;42.714;23.732;2023-12-29T04:37:06;21.92;;;9.88;;
11328;SDS011;5719;42.714;23.732;2023-12-29T04:39:33;18.45;;;8.95;;
11328;SDS011;5719;42.714;23.732;2023-12-29T04:42:00;24.02;;;9.43;;
11328;SDS011;5719;42.714;23.732;2023-12-29T04:44:28;31.17;;;12.57;;
11328;SDS011;5719;42.714;23.732;2023-12-29T04:46:55;27.48;;;11.98;;
11328;SDS011;5719;42.714;23.732;2023-12-29T04:49:21;31.60;;;12.57;;
11328;SDS011;5719;42.714;23.732;2023-12-29T04:51:48;28.15;;;12.20;;
11328;SDS011;5719;42.714;23.732;2023-12-29T04:54:15;32.00;;;12.57;;
11328;SDS011;5719;42.714;23.732;2023-12-29T04:56:42;31.85;;;12.90;;
11328;SDS011;5719;42.714;23.732;2023-12-29T04:59:08;35.45;;;13.70;;
11328;SDS011;5719;42.714;23.732;2023-12-29T05:01:37;36.72;;;15.70;;
11328;SDS011;5719;42.714;23.732;2023-12-29T05:04:03;33.90;;;15.35;;
11328;SDS011;5719;42.714;23.732;2023-12-29T05:06:30;37.85;;;14.73;;
11328;SDS011;5719;42.714;23.732;2023-12-29T05:08:57;39.65;;;14.35;;
11328;SDS011;5719;42.714;23.732;2023-12-29T05:11:24;36.55;;;16.63;;
11328;SDS011;5719;42.714;23.732;2023-12-29T05:13:51;42.65;;;16.33;;
11328;SDS011;5719;42.714;23.732;2023-12-29T05:16:17;36.20;;;14.85;;
11328;SDS011;5719;42.714;23.732;2023-12-29T05:18:45;40.95;;;14.45;;
11328;SDS011;5719;42.714;23.732;2023-12-29T05:21:15;30.75;;;14.10;;
11328;SDS011;5719;42.714;23.732;2023-12-29T05:23:43;30.20;;;13.23;;
11328;SDS011;5719;42.714;23.732;2023-12-29T05:26:13;29.35;;;13.98;;
11328;SDS011;5719;42.714;23.732;2023-12-29T05:28:40;30.02;;;12.48;;
11328;SDS011;5719;42.714;23.732;2023-12-29T05:31:07;36.60;;;14.32;;
11328;SDS011;5719;42.714;23.732;2023-12-29T05:33:34;35.55;;;13.57;;
11328;SDS011;5719;42.714;23.732;2023-12-29T05:36:07;30.23;;;13.27;;
11328;SDS011;5719;42.714;23.732;2023-12-29T05:38:35;30.67;;;14.73;;
11328;SDS011;5719;42.714;23.732;2023-12-29T05:41:02;32.40;;;13.27;;
11328;SDS011;5719;42.714;23.732;2023-12-29T05:43:30;35.60;;;13.80;;
11328;SDS011;5719;42.714;23.732;2023-12-29T05:45:57;30.95;;;14.55;;
11328;SDS011;5719;42.714;23.732;2023-12-29T05:48:25;35.47;;;14.00;;
11328;SDS011;5719;42.714;23.732;2023-12-29T05:50:51;35.30;;;13.93;;
11328;SDS011;5719;42.714;23.732;2023-12-29T05:53:20;32.28;;;13.55;;
11328;SDS011;5719;42.714;23.732;2023-12-29T05:55:47;32.40;;;14.18;;
11328;SDS011;5719;42.714;23.732;2023-12-29T05:58:14;32.97;;;14.00;;
11328;SDS011;5719;42.714;23.732;2023-12-29T06:00:41;29.35;;;12.95;;
11328;SDS011;5719;42.714;23.732;2023-12-29T06:03:09;31.83;;;13.70;;
11328;SDS011;5719;42.714;23.732;2023-12-29T06:05:39;27.50;;;13.02;;
11328;SDS011;5719;42.714;23.732;2023-12-29T06:08:06;36.42;;;13.55;;
11328;SDS011;5719;42.714;23.732;2023-12-29T06:10:35;27.70;;;12.18;;
11328;SDS011;5719;42.714;23.732;2023-12-29T06:13:02;26.67;;;13.15;;
11328;SDS011;5719;42.714;23.732;2023-12-29T06:15:30;24.83;;;11.13;;
11328;SDS011;5719;42.714;23.732;2023-12-29T06:17:57;27.60;;;12.20;;
11328;SDS011;5719;42.714;23.732;2023-12-29T06:20:24;29.13;;;12.20;;
11328;SDS011;5719;42.714;23.732;2023-12-29T06:22:51;23.40;;;11.10;;
11328;SDS011;5719;42.714;23.732;2023-12-29T06:25:17;27.77;;;12.30;;
11328;SDS011;5719;42.714;23.732;2023-12-29T06:27:46;42.05;;;16.95;;
11328;SDS011;5719;42.714;23.732;2023-12-29T06:30:13;66.18;;;26.23;;
11328;SDS011;5719;42.714;23.732;2023-12-29T06:32:41;54.95;;;22.08;;
11328;SDS011;5719;42.714;23.732;2023-12-29T06:35:08;47.17;;;21.65;;
11328;SDS011;5719;42.714;23.732;2023-12-29T06:37:36;59.05;;;24.40;;
11328;SDS011;5719;42.714;23.732;2023-12-29T06:40:04;59.90;;;25.02;;
11328;SDS011;5719;42.714;23.732;2023-12-29T06:42:32;67.10;;;30.55;;
11328;SDS011;5719;42.714;23.732;2023-12-29T06:45:01;70.15;;;31.25;;
11328;SDS011;5719;42.714;23.732;2023-12-29T06:47:28;66.20;;;30.58;;
11328;SDS011;5719;42.714;23.732;2023-12-29T06:49:55;84.55;;;32.75;;
11328;SDS011;5719;42.714;23.732;2023-12-29T06:52:22;67.25;;;27.65;;
11328;SDS011;5719;42.714;23.732;2023-12-29T06:54:49;77.40;;;30.67;;
11328;SDS011;5719;42.714;23.732;2023-12-29T06:57:16;71.07;;;29.40;;
11328;SDS011;5719;42.714;23.732;2023-12-29T06:59:43;93.47;;;40.88;;
11328;SDS011;5719;42.714;23.732;2023-12-29T07:02:11;96.95;;;43.67;;
11328;SDS011;5719;42.714;23.732;2023-12-29T07:04:40;96.10;;;41.58;;
11328;SDS011;5719;42.714;23.732;2023-12-29T07:07:08;99.13;;;45.03;;
11328;SDS011;5719;42.714;23.732;2023-12-29T07:09:37;82.93;;;35.67;;
11328;SDS011;5719;42.714;23.732;2023-12-29T07:12:04;70.47;;;31.85;;
11328;SDS011;5719;42.714;23.732;2023-12-29T07:14:31;64.85;;;28.05;;
11328;SDS011;5719;42.714;23.732;2023-12-29T07:16:58;57.13;;;26.33;;
11328;SDS011;5719;42.714;23.732;2023-12-29T07:19:27;53.55;;;20.35;;
11328;SDS011;5719;42.714;23.732;2023-12-29T07:22:01;41.58;;;18.38;;
11328;SDS011;5719;42.714;23.732;2023-12-29T07:24:30;43.13;;;17.08;;
11328;SDS011;5719;42.714;23.732;2023-12-29T07:26:57;33.30;;;15.45;;
11328;SDS011;5719;42.714;23.732;2023-12-29T07:29:26;36.38;;;13.85;;
11328;SDS011;5719;42.714;23.732;2023-12-29T07:31:53;39.67;;;14.18;;
11328;SDS011;5719;42.714;23.732;2023-12-29T07:34:20;31.52;;;14.25;;
11328;SDS011;5719;42.714;23.732;2023-12-29T07:36:49;34.70;;;16.27;;
11328;SDS011;5719;42.714;23.732;2023-12-29T07:39:17;34.25;;;15.25;;
11328;SDS011;5719;42.714;23.732;2023-12-29T07:41:46;29.73;;;15.32;;
11328;SDS011;5719;42.714;23.732;2023-12-29T07:44:16;33.63;;;15.43;;
11328;SDS011;5719;42.714;23.732;2023-12-29T07:46:43;30.52;;;15.25;;
11328;SDS011;5719;42.714;23.732;2023-12-29T07:49:11;31.00;;;13.50;;
11328;SDS011;5719;42.714;23.732;2023-12-29T07:51:39;31.00;;;14.27;;
11328;SDS011;5719;42.714;23.732;2023-12-29T07:54:07;35.22;;;15.57;;
11328;SDS011;5719;42.714;23.732;2023-12-29T07:56:35;27.80;;;14.18;;
11328;SDS011;5719;42.714;23.732;2023-12-29T07:59:03;29.27;;;13.63;;
11328;SDS011;5719;42.714;23.732;2023-12-29T08:01:31;27.88;;;13.50;;
11328;SDS011;5719;42.714;23.732;2023-12-29T08:03:59;27.13;;;12.80;;
11328;SDS011;5719;42.714;23.732;2023-12-29T08:06:25;24.85;;;11.98;;
11328;SDS011;5719;42.714;23.732;2023-12-29T08:08:53;24.63;;;12.05;;
11328;SDS011;5719;42.714;23.732;2023-12-29T08:11:22;23.90;;;12.35;;
11328;SDS011;5719;42.714;23.732;2023-12-29T08:13:49;23.50;;;11.93;;
11328;SDS011;5719;42.714;23.732;2023-12-29T08:16:16;22.27;;;12.23;;
11328;SDS011;5719;42.714;23.732;2023-12-29T08:18:44;22.92;;;12.75;;
11328;SDS011;5719;42.714;23.732;2023-12-29T08:21:15;18.85;;;11.60;;
11328;SDS011;5719;42.714;23.732;2023-12-29T08:23:45;23.17;;;12.80;;
11328;SDS011;5719;42.714;23.732;2023-12-29T08:26:12;19.98;;;11.35;;
11328;SDS011;5719;42.714;23.732;2023-12-29T08:28:41;20.42;;;11.35;;
11328;SDS011;5719;42.714;23.732;2023-12-29T08:31:08;19.98;;;11.57;;
11328;SDS011;5719;42.714;23.732;2023-12-29T08:33:35;23.10;;;11.57;;
11328;SDS011;5719;42.714;23.732;2023-12-29T08:36:02;18.35;;;11.25;;
11328;SDS011;5719;42.714;23.732;2023-12-29T08:38:29;21.75;;;11.88;;
11328;SDS011;5719;42.714;23.732;2023-12-29T08:40:57;19.60;;;11.07;;
11328;SDS011;5719;42.714;23.732;2023-12-29T08:43:25;23.55;;;11.82;;
11328;SDS011;5719;42.714;23.732;2023-12-29T08:45:53;18.08;;;11.02;;
11328;SDS011;5719;42.714;23.732;2023-12-29T08:48:20;17.60;;;11.02;;
11328;SDS011;5719;42.714;23.732;2023-12-29T08:50:47;18.98;;;11.90;;
11328;SDS011;5719;42.714;23.732;2023-12-29T08:53:14;19.63;;;11.85;;
11328;SDS011;5719;42.714;23.732;2023-12-29T08:55:41;19.38;;;11.55;;
11328;SDS011;5719;42.714;23.732;2023-12-29T08:58:08;20.20;;;11.82;;
11328;SDS011;5719;42.714;23.732;2023-12-29T09:00:35;20.30;;;11.48;;
11328;SDS011;5719;42.714;23.732;2023-12-29T09:03:03;22.65;;;11.48;;
11328;SDS011;5719;42.714;23.732;2023-12-29T09:05:31;22.60;;;11.45;;
11328;SDS011;5719;42.714;23.732;2023-12-29T09:07:57;20.83;;;11.65;;
11328;SDS011;5719;42.714;23.732;2023-12-29T09:10:29;19.98;;;11.63;;
11328;SDS011;5719;42.714;23.732;2023-12-29T09:12:57;21.50;;;12.48;;
11328;SDS011;5719;42.714;23.732;2023-12-29T09:15:24;20.38;;;11.80;;
11328;SDS011;5719;42.714;23.732;2023-12-29T09:17:51;25.02;;;13.48;;
11328;SDS011;5719;42.714;23.732;2023-12-29T09:20:19;20.77;;;13.20;;
11328;SDS011;5719;42.714;23.732;2023-12-29T09:22:46;25.02;;;13.38;;
11328;SDS011;5719;42.714;23.732;2023-12-29T09:25:13;26.95;;;15.50;;
11328;SDS011;5719;42.714;23.732;2023-12-29T09:27:40;26.77;;;17.27;;
11328;SDS011;5719;42.714;23.732;2023-12-29T09:30:07;30.58;;;18.15;;
11328;SDS011;5719;42.714;23.732;2023-12-29T09:32:38;31.70;;;17.80;;
11328;SDS011;5719;42.714;23.732;2023-12-29T09:35:05;29.02;;;16.70;;
11328;SDS011;5719;42.714;23.732;2023-12-29T09:37:33;36.65;;;19.90;;
11328;SDS011;5719;42.714;23.732;2023-12-29T09:40:00;32.03;;;18.40;;
11328;SDS011;5719;42.714;23.732;2023-12-29T09:42:28;34.83;;;20.50;;
11328;SDS011;5719;42.714;23.732;2023-12-29T09:44:57;36.03;;;19.73;;
11328;SDS011;5719;42.714;23.732;2023-12-29T09:47:27;31.20;;;17.77;;
11328;SDS011;5719;42.714;23.732;2023-12-29T09:49:56;31.48;;;15.88;;
11328;SDS011;5719;42.714;23.732;2023-12-29T09:52:24;30.38;;;17.35;;
11328;SDS011;5719;42.714;23.732;2023-12-29T09:54:52;26.77;;;16.02;;
11328;SDS011;5719;42.714;23.732;2023-12-29T09:57:19;29.33;;;16.23;;
11328;SDS011;5719;42.714;23.732;2023-12-29T09:59:48;27.52;;;15.65;;
11328;SDS011;5719;42.714;23.732;2023-12-29T10:02:16;22.60;;;14.93;;
11328;SDS011;5719;42.714;23.732;2023-12-29T10:04:43;27.52;;;16.05;;
11328;SDS011;5719;42.714;23.732;2023-12-29T10:07:12;24.33;;;14.32;;
11328;SDS011;5719;42.714;23.732;2023-12-29T10:09:45;27.75;;;15.45;;
11328;SDS011;5719;42.714;23.732;2023-12-29T10:12:15;23.85;;;15.02;;
11328;SDS011;5719;42.714;23.732;2023-12-29T10:14:46;29.23;;;17.08;;
11328;SDS011;5719;42.714;23.732;2023-12-29T10:17:19;28.77;;;14.93;;
11328;SDS011;5719;42.714;23.732;2023-12-29T10:19:56;26.92;;;14.98;;
11328;SDS011;5719;42.714;23.732;2023-12-29T10:22:31;22.20;;;14.43;;
11328;SDS011;5719;42.714;23.732;2023-12-29T10:25:07;23.48;;;13.57;;
11328;SDS011;5719;42.714;23.732;2023-12-29T10:27:36;25.48;;;14.45;;
11328;SDS011;5719;42.714;23.732;2023-12-29T10:30:03;22.88;;;13.77;;
11328;SDS011;5719;42.714;23.732;2023-12-29T10:32:36;24.83;;;14.77;;
11328;SDS011;5719;42.714;23.732;2023-12-29T10:35:08;27.73;;;15.00;;
11328;SDS011;5719;42.714;23.732;2023-12-29T10:37:36;25.42;;;14.90;;
11328;SDS011;5719;42.714;23.732;2023-12-29T10:40:03;23.63;;;13.90;;
11328;SDS011;5719;42.714;23.732;2023-12-29T10:42:31;29.50;;;15.07;;
11328;SDS011;5719;42.714;23.732;2023-12-29T10:45:09;23.83;;;13.75;;
11328;SDS011;5719;42.714;23.732;2023-12-29T10:47:36;23.83;;;14.13;;
11328;SDS011;5719;42.714;23.732;2023-12-29T10:50:04;23.60;;;14.80;;
11328;SDS011;5719;42.714;23.732;2023-12-29T10:52:32;20.58;;;13.32;;
11328;SDS011;5719;42.714;23.732;2023-12-29T10:55:06;23.60;;;13.90;;
11328;SDS011;5719;42.714;23.732;2023-12-29T10:57:34;28.77;;;14.70;;
11328;SDS011;5719;42.714;23.732;2023-12-29T11:00:02;22.58;;;14.20;;
11328;SDS011;5719;42.714;23.732;2023-12-29T11:02:32;23.80;;;14.32;;
11328;SDS011;5719;42.714;23.732;2023-12-29T11:05:05;24.35;;;13.98;;
11328;SDS011;5719;42.714;23.732;2023-12-29T11:07:36;25.13;;;15.57;;
11328;SDS011;5719;42.714;23.732;2023-12-29T11:10:05;25.77;;;15.88;;
11328;SDS011;5719;42.714;23.732;2023-12-29T11:12:34;26.60;;;16.05;;
11328;SDS011;5719;42.714;23.732;2023-12-29T11:15:02;25.17;;;15.23;;
11328;SDS011;5719;42.714;23.732;2023-12-29T11:17:33;24.20;;;14.75;;
11328;SDS011;5719;42.714;23.732;2023-12-29T11:20:01;22.83;;;14.50;;
11328;SDS011;5719;42.714;23.732;2023-12-29T11:22:30;23.13;;;14.18;;
11328;SDS011;5719;42.714;23.732;2023-12-29T11:24:58;22.40;;;14.20;;
11328;SDS011;5719;42.714;23.732;2023-12-29T11:27:27;23.55;;;14.13;;
11328;SDS011;5719;42.714;23.732;2023-12-29T11:29:55;23.77;;;13.82;;
11328;SDS011;5719;42.714;23.732;2023-12-29T11:32:24;24.17;;;14.30;;
11328;SDS011;5719;42.714;23.732;2023-12-29T11:35:02;24.55;;;13.57;;
11328;SDS011;5719;42.714;23.732;2023-12-29T11:37:40;21.80;;;12.32;;
11328;SDS011;5719;42.714;23.732;2023-12-29T11:40:25;22.98;;;13.68;;
11328;SDS011;5719;42.714;23.732;2023-12-29T11:42:59;21.92;;;13.40;;
11328;SDS011;5719;42.714;23.732;2023-12-29T11:45:33;24.45;;;13.57;;
11328;SDS011;5719;42.714;23.732;2023-12-29T11:48:01;19.60;;;12.82;;
11328;SDS011;5719;42.714;23.732;2023-12-29T11:50:31;24.02;;;13.80;;
11328;SDS011;5719;42.714;23.732;2023-12-29T11:52:59;22.27;;;13.77;;
11328;SDS011;5719;42.714;23.732;2023-12-29T11:55:30;20.45;;;12.27;;
11328;SDS011;5719;42.714;23.732;2023-12-29T11:58:00;25.13;;;13.35;;
11328;SDS011;5719;42.714;23.732;2023-12-29T12:00:41;21.45;;;13.02;;
11328;SDS011;5719;42.714;23.732;2023-12-29T12:03:16;22.45;;;13.38;;
11328;SDS011;5719;42.714;23.732;2023-12-29T12:05:46;25.20;;;13.57;;
11328;SDS011;5719;42.714;23.732;2023-12-29T12:08:26;24.98;;;14.02;;
11328;SDS011;5719;42.714;23.732;2023-12-29T12:10:57;24.80;;;14.17;;
11328;SDS011;5719;42.714;23.732;2023-12-29T12:13:44;21.95;;;14.20;;
11328;SDS011;5719;42.714;23.732;2023-12-29T12:19:24;22.55;;;13.52;;
11328;SDS011;5719;42.714;23.732;2023-12-29T12:22:01;23.20;;;13.95;;
11328;SDS011;5719;42.714;23.732;2023-12-29T12:24:28;22.65;;;13.25;;
11328;SDS011;5719;42.714;23.732;2023-12-29T12:26:55;26.27;;;14.77;;
11328;SDS011;5719;42.714;23.732;2023-12-29T12:29:22;19.90;;;12.60;;
11328;SDS011;5719;42.714;23.732;2023-12-29T12:31:53;21.48;;;13.80;;
11328;SDS011;5719;42.714;23.732;2023-12-29T12:34:23;23.50;;;12.82;;
11328;SDS011;5719;42.714;23.732;2023-12-29T12:36:51;19.50;;;11.93;;
11328;SDS011;5719;42.714;23.732;2023-12-29T12:39:22;21.67;;;11.35;;
11328;SDS011;5719;42.714;23.732;2023-12-29T12:41:49;17.45;;;11.52;;
11328;SDS011;5719;42.714;23.732;2023-12-29T12:44:16;18.48;;;10.95;;
11328;SDS011;5719;42.714;23.732;2023-12-29T12:46:49;19.05;;;10.95;;
11328;SDS011;5719;42.714;23.732;2023-12-29T12:49:18;18.23;;;11.57;;
11328;SDS011;5719;42.714;23.732;2023-12-29T12:51:46;21.20;;;11.38;;
11328;SDS011;5719;42.714;23.732;2023-12-29T12:54:15;17.27;;;10.70;;
11328;SDS011;5719;42.714;23.732;2023-12-29T12:56:45;17.45;;;10.40;;
11328;SDS011;5719;42.714;23.732;2023-12-29T12:59:13;18.83;;;10.32;;
11328;SDS011;5719;42.714;23.732;2023-12-29T13:01:41;15.95;;;10.20;;
11328;SDS011;5719;42.714;23.732;2023-12-29T13:04:09;15.52;;;10.50;;
11328;SDS011;5719;42.714;23.732;2023-12-29T13:06:39;16.25;;;8.60;;
11328;SDS011;5719;42.714;23.732;2023-12-29T13:09:06;16.50;;;10.02;;
11328;SDS011;5719;42.714;23.732;2023-12-29T13:11:36;14.70;;;8.93;;
11328;SDS011;5719;42.714;23.732;2023-12-29T13:14:05;15.05;;;9.15;;
11328;SDS011;5719;42.714;23.732;2023-12-29T13:16:33;15.98;;;8.63;;
11328;SDS011;5719;42.714;23.732;2023-12-29T13:21:47;19.80;;;10.18;;
11328;SDS011;5719;42.714;23.732;2023-12-29T13:24:16;23.92;;;9.85;;
11328;SDS011;5719;42.714;23.732;2023-12-29T13:26:43;15.60;;;9.85;;
11328;SDS011;5719;42.714;23.732;2023-12-29T13:29:12;16.40;;;9.73;;
11328;SDS011;5719;42.714;23.732;2023-12-29T13:31:41;16.45;;;10.15;;
11328;SDS011;5719;42.714;23.732;2023-12-29T13:34:11;12.88;;;9.50;;
11328;SDS011;5719;42.714;23.732;2023-12-29T13:36:42;20.10;;;10.38;;
11328;SDS011;5719;42.714;23.732;2023-12-29T13:39:14;21.60;;;11.80;;
11328;SDS011;5719;42.714;23.732;2023-12-29T13:41:47;20.00;;;12.02;;
11328;SDS011;5719;42.714;23.732;2023-12-29T13:44:16;25.88;;;13.82;;
11328;SDS011;5719;42.714;23.732;2023-12-29T13:46:46;28.80;;;14.52;;
11328;SDS011;5719;42.714;23.732;2023-12-29T13:49:14;35.83;;;18.00;;
11328;SDS011;5719;42.714;23.732;2023-12-29T13:51:42;28.67;;;14.27;;
11328;SDS011;5719;42.714;23.732;2023-12-29T13:54:09;19.85;;;12.00;;
11328;SDS011;5719;42.714;23.732;2023-12-29T13:56:36;20.95;;;12.13;;
11328;SDS011;5719;42.714;23.732;2023-12-29T13:59:04;20.05;;;11.18;;
11328;SDS011;5719;42.714;23.732;2023-12-29T14:01:36;19.27;;;11.02;;
11328;SDS011;5719;42.714;23.732;2023-12-29T14:04:06;18.27;;;10.88;;
11328;SDS011;5719;42.714;23.732;2023-12-29T14:06:37;24.52;;;13.50;;
11328;SDS011;5719;42.714;23.732;2023-12-29T14:09:09;26.53;;;14.27;;
11328;SDS011;5719;42.714;23.732;2023-12-29T14:11:43;31.45;;;16.27;;
11328;SDS011;5719;42.714;23.732;2023-12-29T14:14:11;30.20;;;13.50;;
11328;SDS011;5719;42.714;23.732;2023-12-29T14:16:40;23.83;;;14.35;;
11328;SDS011;5719;42.714;23.732;2023-12-29T14:19:07;24.90;;;15.10;;
11328;SDS011;5719;42.714;23.732;2023-12-29T14:21:34;32.45;;;20.35;;
11328;SDS011;5719;42.714;23.732;2023-12-29T14:24:09;36.38;;;20.95;;
11328;SDS011;5719;42.714;23.732;2023-12-29T14:26:37;33.55;;;19.23;;
11328;SDS011;5719;42.714;23.732;2023-12-29T14:29:05;28.77;;;16.95;;
11328;SDS011;5719;42.714;23.732;2023-12-29T14:31:34;22.50;;;13.20;;
11328;SDS011;5719;42.714;23.732;2023-12-29T14:34:04;22.83;;;12.10;;